AirNav   Everest Fuels
 
 1125 users online  

CL35 Warner Springs Gliderport
Warner Springs, California, USA

GOING TO WARNER SPRINGS?


FAA INFORMATION EFFECTIVE 30 JANUARY 2020

Location

FAA Identifier: CL35
Lat/Long: 33-17-04.2100N 116-40-10.7650W
33-17.070167N 116-40.179417W
33.2845028,-116.6696569
(estimated)
Elevation: 2880 ft. / 878 m (estimated)
Variation: 13E (1985)
From city: 2 miles E of WARNER SPRINGS, CA
Time zone: UTC -8 (UTC -7 during Daylight Saving Time)
Zip code: 92086

Gliderport Operations

Gliderport use: Private use. Permission required prior to landing
Activation date: 10/1984
Control tower: no
ARTCC: LOS ANGELES CENTER
FSS: SAN DIEGO FLIGHT SERVICE STATION
Attendance: 0900-1700
Wind indicator: yes
Segmented circle: yes
Landing fee: yes

Gliderport Communications

UNICOM: 122.8
WX AWOS-3P at L08 (18 nm E): 126.575 (760-767-3308)
WX ASOS at RNM (19 nm SW): PHONE 760-789-7699

Nearby radio navigation aids

VOR radial/distance  VOR name  Freq  Var
JLIr319/9.6JULIAN VORTAC114.0015E
TRMr218/32.8THERMAL VORTAC116.2013E
PSPr186/37.1PALM SPRINGS VORTAC115.5013E
OCNr071/37.6OCEANSIDE VORTAC115.3015E
HDFr125/(39.2)HOMELAND VOR113.4014E

Gliderport Services

Runway Information

Runway 8/26

Dimensions: 3500 x 70 ft. / 1067 x 21 m
Surface: asphalt
RUNWAY 8  RUNWAY 26
Latitude: 33-17.060333N33-17.080000N
Longitude: 116-40.522667W116-39.836167W
Elevation: 2873.0 ft.2914.0 ft.
Traffic pattern: leftleft
Obstructions: none200 ft. hill, 5200 ft. from runway

Gliderport Ownership and Management from official FAA records

Ownership: Privately-owned
Owner: WARNER SPRINGS RANCH RESORT, LLC
31930 HWY 79
WARNER SPRINGS, CA 92086
Phone 760-782-4200
SKY SAILING 31930 HWY 79.
Manager: BRET WILLAT
SKY SAILING 31930 HWY 79
WARNER SPRINGS, CA 92086
Phone 760-782-0404
LEASEE.

Gliderport Operational Statistics

Aircraft based on the field: 80
Single engine airplanes: 10
Gliders airplanes: 70
    

Additional Remarks

FOR CD CTC LOS ANGELES ARTCC AT 661-575-2079.

Instrument Procedures

There are no published instrument procedures at CL35.

Some nearby airports with instrument procedures:

L08 - Borrego Valley Airport (18 nm E)
KRNM - Ramona Airport (19 nm SW)
F70 - French Valley Airport (29 nm NW)
L18 - Fallbrook Community Airpark (29 nm W)
KSEE - Gillespie Field Airport (31 nm SW)
 
Loc | Ops | Rwys | IFR | FBO | Links
Com | Nav | Svcs | Stats | Notes
Area around CL35 (Warner Springs Gliderport)
 
Road maps at: MapQuest Bing Google
 
Aerial photo
WARNING: Photo may not be current or correct
Aerial photo of CL35 (Warner Springs Gliderport)
Photo by Steve Lupinacci
Photo taken 27-May-2008

Do you have a better or more recent aerial photo of Warner Springs Gliderport that you would like to share? If so, please send us your photo.

 
Sectional chart

 
Airport distance calculator
Flying to Warner Springs Gliderport? Find the distance to fly.

From to CL35

Sunrise and sunset
Times for 23-Feb-2020
 Local
(UTC-8)
 Zulu
(UTC)
Morning civil twilight05:5813:58
Sunrise06:2314:23
Sunset17:3701:37
Evening civil twilight18:0202:02

Current date and time
Zulu (UTC)  23-Feb-2020 16:41:47
Local (UTC-8)  23-Feb-2020 08:41:47
 
METAR
KL08 
18nm E 
231615Z AUTO 12006KT 10SM CLR 18/06 A3017 RMK AO2
KRNM 
20nm SW 
231553Z 26005KT 5SM BR SCT008 OVC013 10/09 A3028 RMK AO2 RAE08 SLP251 P0000 T01000094
KF70 
29nm NW 
231615Z AUTO 00000KT 10SM BKN010 OVC044 11/09 A3028 RMK AO1
KL18 
29nm W 
231615Z AUTO 00000KT 10SM BKN046 12/11 A3029 RMK AO2
KSEE 
32nm SW 
231547Z 00000KT 7SM BKN044 OVC050 13/11 A3030
KCRQ 
32nm W 
231553Z 26004KT 10SM FEW046 14/09 A3028 RMK AO2 SLP251 T01390089
KHMT 
32nm NW 
231615Z AUTO 00000KT 10SM SCT014 OVC043 11/09 A3028 RMK AO2 T01130093
KTRM 
33nm NE 
231552Z AUTO 14004KT 10SM CLR 15/07 A3015 RMK AO2 SLP211 T01500067
KPSP 
33nm N 
231553Z 25004KT 10SM CLR 14/06 A3018 RMK AO2 SLP219 T01440061
KNFG 
33nm W 
231555Z 00000KT 8SM SCT029 BKN047 13/11 A3028 RMK AO2 SLP253 T01280106 $
TAF
KCRQ 
32nm W 
231602Z 2316/2412 26005KT P6SM SCT025 SCT045 FM232000 27008KT P6SM SCT045 FM240100 VRB04KT P6SM SCT020 FM240600 VRB03KT P6SM BKN015
KTRM 
33nm NE 
231148Z 2312/2412 33012KT P6SM FEW100 FM231700 32007KT P6SM FEW250 FM232300 30010KT P6SM SKC FM240700 33005KT P6SM SKC
KPSP 
33nm N 
231148Z 2312/2412 27005KT P6SM FEW250 FM240000 32011KT P6SM SKC FM240800 29003KT P6SM SKC
KNFG 
33nm W 
2315/2415 VRB05KT 9999 SCT020 OVC050 QNH3012INS BECMG 2320/2322 24008KT 9999 SCT025 QNH3017INS T17/2321Z T08/2413Z
KNKX 
34nm SW 
2315/2415 VRB05KT 9999 SCT020 OVC050 QNH3020INS BECMG 2320/2322 27008KT 9999 SCT025 QNH3018INS T17/2321Z T10/2413Z
NOTAMs
Click for the latest NOTAMs
NOTAMs are issued by the DoD/FAA and will open in a separate window not controlled by AirNav.

 

 
 

Would you like to see your business listed on this page?

 If your business provides an interesting product or service to pilots, flight crews, aircraft, or users of the Warner Springs Gliderport, you should consider listing it here.  To start the listing process, click on the button below
 
Add a business
 

Other Pages about Warner Springs Gliderport

www.agcsc.org/warner_springs_info.html
 
Update a link
 
Copyright © AirNav, LLC. All rights reserved. Privacy Policy  Contact